Time;durP1;ratioP1;P1;durP2;ratioP2;P2;SDS_P1;SDS_P2;PMS_P1;PMS_P2;Temp;Humidity;BMP_temperature;BMP_pressure;BME280_temperature;BME280_humidity;BME280_pressure;Samples;Min_cycle;Max_cycle;Signal;HPM_P1;HPM_P2
2022/12/18 00:00:58;;;;;;;;;;;;;;;19.99;41.09;102733.94;5033296;28;5301;-64
2022/12/18 00:03:25;;;;;;;;;;;;;;;19.98;41.13;102738.19;5034889;28;5494;-64
2022/12/18 00:05:52;;;;;;;;;;;;;;;19.97;41.16;102733.78;5032485;28;5218;-64
2022/12/18 00:08:18;;;;;;;;;;;;;;;19.99;41.21;102731.06;5032814;28;5366;-64
2022/12/18 00:10:45;;;;;;;;;;;;;;;20.02;41.41;102741.41;5034555;28;4117;-64
2022/12/18 00:13:11;;;;;;;;;;;;;;;20.02;41.62;102729.91;5030191;28;4183;-63
2022/12/18 00:15:37;;;;;;;;;;;;;;;20.00;41.38;102735.47;5034007;28;4180;-64
2022/12/18 00:18:04;;;;;;;;;;;;;;;20.00;41.30;102737.59;5031487;28;4237;-64
2022/12/18 00:20:30;;;;;;;;;;;;;;;19.99;41.21;102733.94;5035181;28;4549;-64
2022/12/18 00:22:56;;;;;;;;;;;;;;;19.98;41.32;102735.31;5032553;28;4130;-63
2022/12/18 00:25:23;;;;;;;;;;;;;;;19.99;41.27;102745.47;5042415;28;4103;-63
2022/12/18 00:27:49;;;;;;;;;;;;;;;19.99;41.19;102736.06;5034565;28;4062;-64
2022/12/18 00:30:16;;;;;;;;;;;;;;;19.98;41.27;102723.81;5039584;28;3954;-63
2022/12/18 00:32:43;;;;;;;;;;;;;;;19.99;41.25;102725.31;5042417;28;4265;-63
2022/12/18 00:35:09;;;;;;;;;;;;;;;19.97;41.27;102728.03;5045810;28;4094;-63
2022/12/18 00:37:35;;;;;;;;;;;;;;;19.97;41.30;102728.03;5044598;28;4240;-63
2022/12/18 00:40:02;;;;;;;;;;;;;;;19.96;41.22;102731.53;5026871;28;4263;-63
2022/12/18 00:45:14;;;;;;;;;;;;;;;19.95;41.33;102735.75;5022177;28;4849;-64
2022/12/18 00:47:40;;;;;;;;;;;;;;;19.94;41.25;102734.25;5037292;28;4181;-63
2022/12/18 00:50:07;;;;;;;;;;;;;;;19.94;41.27;102737.88;5037269;28;4132;-63
2022/12/18 00:52:33;;;;;;;;;;;;;;;19.94;41.21;102734.25;5031633;28;4338;-62
2022/12/18 00:54:59;;;;;;;;;;;;;;;19.96;41.14;102735.16;5024935;28;4316;-62
2022/12/18 00:57:31;;;;;;;;;;;;;;;19.98;41.21;102726.69;5030898;28;4488;-62
2022/12/18 00:59:58;;;;;;;;;;;;;;;20.00;41.27;102731.84;5035125;28;4086;-62
2022/12/18 01:02:24;;;;;;;;;;;;;;;19.99;41.16;102727.44;5035693;28;4177;-63
2022/12/18 01:04:51;;;;;;;;;;;;;;;19.99;41.33;102733.94;5037329;28;5461;-63
2022/12/18 01:07:18;;;;;;;;;;;;;;;19.98;41.31;102740.31;5030502;28;4142;-63
2022/12/18 01:09:45;;;;;;;;;;;;;;;19.95;41.22;102736.53;5037259;28;4114;-63
2022/12/18 01:12:11;;;;;;;;;;;;;;;19.94;41.14;102740.75;5039323;28;4022;-63
2022/12/18 01:14:38;;;;;;;;;;;;;;;19.94;41.13;102748.63;5041126;28;4372;-63
2022/12/18 01:17:04;;;;;;;;;;;;;;;19.91;41.22;102747.72;5023866;28;4135;-63
2022/12/18 01:19:31;;;;;;;;;;;;;;;19.91;41.28;102741.97;5027873;28;4202;-63
2022/12/18 01:21:58;;;;;;;;;;;;;;;19.90;41.35;102754.81;5031776;28;4008;-63
2022/12/18 01:24:24;;;;;;;;;;;;;;;19.91;41.16;102747.72;5036838;28;5437;-63
2022/12/18 01:26:50;;;;;;;;;;;;;;;19.92;41.18;102757.84;5038639;28;4035;-63
2022/12/18 01:29:17;;;;;;;;;;;;;;;19.92;41.21;102760.72;5031222;28;4262;-63
2022/12/18 01:31:43;;;;;;;;;;;;;;;19.93;41.27;102761.47;5035839;28;4147;-63
2022/12/18 01:34:10;;;;;;;;;;;;;;;19.94;41.17;102766.63;5033870;28;4322;-62
2022/12/18 01:36:36;;;;;;;;;;;;;;;19.95;41.17;102764.50;5039041;28;4155;-63
2022/12/18 01:39:04;;;;;;;;;;;;;;;19.97;41.31;102774.06;5044783;28;4138;-64
2022/12/18 01:42:01;;;;;;;;;;;;;;;19.97;41.27;102771.19;5040289;28;4137;-63
2022/12/18 01:44:35;;;;;;;;;;;;;;;19.96;41.28;102772.56;5042857;28;4110;-63
2022/12/18 01:47:02;;;;;;;;;;;;;;;19.93;41.20;102770.88;5045673;28;4120;-63
2022/12/18 01:49:28;;;;;;;;;;;;;;;19.94;41.27;102768.75;5041804;28;4097;-63
2022/12/18 01:51:54;;;;;;;;;;;;;;;19.92;41.33;102771.47;5046091;28;4183;-64
2022/12/18 01:54:21;;;;;;;;;;;;;;;19.92;41.29;102777.22;5041507;28;5224;-64
2022/12/18 01:56:47;;;;;;;;;;;;;;;19.90;41.20;102777.81;5044313;28;5179;-63
2022/12/18 01:59:16;;;;;;;;;;;;;;;19.91;41.25;102781.47;5048990;28;5393;-63
2022/12/18 02:01:43;;;;;;;;;;;;;;;19.89;41.21;102776.31;5062474;28;4031;-63
2022/12/18 02:04:21;;;;;;;;;;;;;;;19.89;41.33;102779.19;5052229;28;4176;-63
2022/12/18 02:06:50;;;;;;;;;;;;;;;19.90;41.29;102772.06;5057074;28;4042;-63
2022/12/18 02:09:19;;;;;;;;;;;;;;;19.90;41.29;102792.19;5038769;28;4153;-63
2022/12/18 02:12:01;;;;;;;;;;;;;;;19.90;41.31;102786.44;5034878;28;4384;-63
2022/12/18 02:14:41;;;;;;;;;;;;;;;19.90;41.22;102779.94;5031223;28;4422;-63
2022/12/18 02:17:12;;;;;;;;;;;;;;;19.90;41.16;102786.44;5048405;28;5290;-63
2022/12/18 02:19:44;;;;;;;;;;;;;;;19.90;41.30;102795.06;5056081;28;4206;-63
2022/12/18 02:22:16;;;;;;;;;;;;;;;19.88;41.16;102795.69;5033598;28;5202;-63
2022/12/18 02:24:51;;;;;;;;;;;;;;;19.87;41.26;102787.66;5058875;28;3942;-63
2022/12/18 02:27:18;;;;;;;;;;;;;;;19.86;41.28;102786.13;5037635;28;4144;-63
2022/12/18 02:37:22;;;;;;;;;;;;;;;19.85;41.13;102781.72;5018932;28;4087;-63
2022/12/18 02:39:49;;;;;;;;;;;;;;;19.87;41.27;102787.66;5024260;28;4483;-63
2022/12/18 02:42:15;;;;;;;;;;;;;;;19.87;41.16;102794.16;5028243;28;4330;-63
2022/12/18 02:44:44;;;;;;;;;;;;;;;19.88;41.18;102789.16;5040776;28;4465;-63
2022/12/18 02:47:12;;;;;;;;;;;;;;;19.89;41.28;102787.81;5037103;28;4290;-63
2022/12/18 02:49:44;;;;;;;;;;;;;;;19.88;41.14;102789.94;5047394;28;5623;-63
2022/12/18 02:52:24;;;;;;;;;;;;;;;19.88;41.20;102794.91;5025688;28;5359;-63
2022/12/18 02:54:53;;;;;;;;;;;;;;;19.87;41.29;102799.91;5040180;28;4003;-63
2022/12/18 02:57:33;;;;;;;;;;;;;;;19.87;41.18;102796.28;5027286;28;4299;-63
2022/12/18 03:00:05;;;;;;;;;;;;;;;19.86;41.18;102794.75;5025183;28;4022;-63
2022/12/18 03:02:37;;;;;;;;;;;;;;;19.85;41.18;102785.34;5023352;28;4069;-63
2022/12/18 03:05:07;;;;;;;;;;;;;;;19.85;41.11;102790.34;5043103;28;4159;-63
2022/12/18 03:07:35;;;;;;;;;;;;;;;19.84;41.11;102800.34;5023159;28;4399;-63
2022/12/18 03:10:04;;;;;;;;;;;;;;;19.83;41.07;102804.56;5038159;28;4149;-63
2022/12/18 03:12:31;;;;;;;;;;;;;;;19.83;41.17;102801.69;5036193;28;4286;-63
2022/12/18 03:15:05;;;;;;;;;;;;;;;19.81;41.11;102790.81;5024852;28;4092;-63
2022/12/18 03:17:32;;;;;;;;;;;;;;;19.80;41.15;102794.28;5030936;28;4138;-63
2022/12/18 03:20:00;;;;;;;;;;;;;;;19.79;41.11;102781.25;5034069;28;4016;-63
2022/12/18 03:22:26;;;;;;;;;;;;;;;19.77;41.09;102789.69;5025666;28;4249;-63
2022/12/18 03:25:07;;;;;;;;;;;;;;;19.76;41.03;102805.44;5030681;28;4035;-63
2022/12/18 03:27:40;;;;;;;;;;;;;;;19.75;40.93;102798.19;5023415;28;4083;-63
2022/12/18 03:30:10;;;;;;;;;;;;;;;19.74;40.81;102790.91;5036425;28;5484;-63
2022/12/18 03:32:56;;;;;;;;;;;;;;;19.74;40.79;102785.16;5048299;28;4147;-62
2022/12/18 03:35:27;;;;;;;;;;;;;;;19.74;40.76;102785.91;5031917;28;4099;-63
2022/12/18 03:37:55;;;;;;;;;;;;;;;19.74;40.72;102776.53;5023288;28;4010;-63
2022/12/18 03:40:24;;;;;;;;;;;;;;;19.78;40.88;102791.22;5040667;28;4209;-63
2022/12/18 03:42:51;;;;;;;;;;;;;;;19.79;40.81;102784.91;5022029;28;5368;-63
2022/12/18 03:45:23;;;;;;;;;;;;;;;19.81;40.97;102790.03;5030672;28;4215;-63
2022/12/18 03:47:58;;;;;;;;;;;;;;;19.82;41.04;102785.81;5014367;28;4109;-63
2022/12/18 03:50:24;;;;;;;;;;;;;;;19.83;41.03;102787.31;5034287;28;3957;-63
2022/12/18 03:52:55;;;;;;;;;;;;;;;19.83;41.05;102793.06;5032436;28;4150;-63
2022/12/18 03:55:22;;;;;;;;;;;;;;;19.84;41.03;102795.34;5038736;28;4167;-63
2022/12/18 03:57:54;;;;;;;;;;;;;;;19.84;41.04;102792.47;5037146;28;4802;-63
2022/12/18 04:00:21;;;;;;;;;;;;;;;19.85;41.13;102796.84;5024079;28;4162;-63
2022/12/18 04:02:54;;;;;;;;;;;;;;;19.85;41.09;102807.59;5027685;28;4732;-64
2022/12/18 04:05:26;;;;;;;;;;;;;;;19.86;41.16;102809.13;5023046;28;4086;-63
2022/12/18 04:07:53;;;;;;;;;;;;;;;19.85;41.13;102808.34;5021855;28;5257;-63
2022/12/18 04:10:20;;;;;;;;;;;;;;;19.86;41.12;102809.13;5030678;28;4119;-63
2022/12/18 04:12:47;;;;;;;;;;;;;;;19.84;41.19;102811.84;5027415;28;4246;-63
2022/12/18 04:15:14;;;;;;;;;;;;;;;19.83;41.16;102816.06;5025615;28;4116;-63
2022/12/18 04:17:46;;;;;;;;;;;;;;;19.83;41.04;102810.31;5023968;28;5248;-63
2022/12/18 04:20:14;;;;;;;;;;;;;;;19.82;41.04;102812.44;5033130;28;4112;-63
2022/12/18 04:22:42;;;;;;;;;;;;;;;19.81;41.22;102818.78;5025539;28;5170;-63
2022/12/18 04:25:09;;;;;;;;;;;;;;;19.81;41.02;102833.16;5028672;28;4137;-63
2022/12/18 04:27:40;;;;;;;;;;;;;;;19.80;40.99;102828.78;5023176;28;5314;-63
2022/12/18 04:30:07;;;;;;;;;;;;;;;19.80;40.98;102835.28;5034672;28;5275;-63
2022/12/18 04:32:34;;;;;;;;;;;;;;;19.80;40.75;102828.78;5043237;28;4205;-63
2022/12/18 04:35:00;;;;;;;;;;;;;;;19.80;40.90;102826.66;5033351;28;5346;-63
2022/12/18 04:37:30;;;;;;;;;;;;;;;19.80;40.86;102823.78;5029275;28;4059;-63
2022/12/18 04:39:56;;;;;;;;;;;;;;;19.81;40.74;102824.53;5051976;28;4130;-63
2022/12/18 04:42:31;;;;;;;;;;;;;;;19.83;40.93;102830.44;5040054;28;4023;-63
2022/12/18 04:44:57;;;;;;;;;;;;;;;19.83;40.76;102821.81;5043416;28;4129;-63
2022/12/18 04:47:23;;;;;;;;;;;;;;;19.83;40.88;102821.81;5042548;28;4017;-63
2022/12/18 04:49:50;;;;;;;;;;;;;;;19.83;40.88;102824.69;5042741;28;4024;-64
2022/12/18 04:52:16;;;;;;;;;;;;;;;19.83;41.06;102821.81;5044639;28;4020;-63
2022/12/18 04:54:42;;;;;;;;;;;;;;;19.83;40.91;102818.94;5042438;28;4174;-63
2022/12/18 04:57:09;;;;;;;;;;;;;;;19.84;41.01;102829.09;5038228;28;4315;-63
2022/12/18 04:59:35;;;;;;;;;;;;;;;19.84;41.03;102841.34;5045919;28;5314;-63
2022/12/18 05:02:01;;;;;;;;;;;;;;;19.85;41.03;102842.09;5036334;28;4149;-63
2022/12/18 05:04:28;;;;;;;;;;;;;;;19.84;40.93;102840.59;5038508;28;4348;-63
2022/12/18 05:06:54;;;;;;;;;;;;;;;19.83;41.03;102833.31;5032127;28;4124;-63
2022/12/18 05:09:21;;;;;;;;;;;;;;;19.84;40.99;102826.22;5034312;28;4036;-63
2022/12/18 05:11:47;;;;;;;;;;;;;;;19.83;41.01;102836.94;5025345;28;4133;-63
2022/12/18 05:14:13;;;;;;;;;;;;;;;19.83;41.17;102847.69;5036495;28;5069;-63
2022/12/18 05:16:40;;;;;;;;;;;;;;;19.83;40.94;102853.44;5031398;28;4344;-63
2022/12/18 05:19:06;;;;;;;;;;;;;;;19.82;40.96;102858.44;5031731;28;3999;-63
2022/12/18 05:21:32;;;;;;;;;;;;;;;19.80;41.00;102857.53;5033242;28;4163;-63
2022/12/18 05:23:59;;;;;;;;;;;;;;;19.80;40.95;102858.28;5028488;28;4145;-63
2022/12/18 05:26:25;;;;;;;;;;;;;;;19.82;40.94;102866.31;5036648;28;4121;-63
2022/12/18 05:28:51;;;;;;;;;;;;;;;19.81;40.93;102859.81;5037657;28;5158;-63
2022/12/18 05:31:18;;;;;;;;;;;;;;;19.81;40.86;102868.44;5031688;28;4351;-63
2022/12/18 05:33:44;;;;;;;;;;;;;;;19.81;41.03;102871.31;5038397;28;5275;-62
2022/12/18 05:36:11;;;;;;;;;;;;;;;19.83;40.85;102879.31;5045068;28;5565;-63
2022/12/18 05:38:37;;;;;;;;;;;;;;;19.82;40.72;102867.06;5039003;28;5394;-63
2022/12/18 05:41:04;;;;;;;;;;;;;;;19.83;40.84;102859.19;5043845;28;4171;-64
2022/12/18 05:43:30;;;;;;;;;;;;;;;19.84;40.83;102875.84;5036310;28;4587;-64
2022/12/18 05:45:57;;;;;;;;;;;;;;;19.85;40.96;102876.63;5040412;28;4161;-65
2022/12/18 05:48:23;;;;;;;;;;;;;;;19.84;40.80;102869.34;5038110;28;4265;-64
2022/12/18 05:50:50;;;;;;;;;;;;;;;19.84;40.76;102875.09;5022283;28;3946;-65
2022/12/18 05:53:17;;;;;;;;;;;;;;;19.83;40.85;102873.56;5039948;28;4017;-62
2022/12/18 05:55:43;;;;;;;;;;;;;;;19.84;40.83;102880.84;5034239;28;4200;-63
2022/12/18 05:58:14;;;;;;;;;;;;;;;19.83;40.95;102885.06;5036193;28;4151;-62
2022/12/18 06:00:41;;;;;;;;;;;;;;;19.82;40.88;102872.06;5027285;28;4050;-63
2022/12/18 06:03:08;;;;;;;;;;;;;;;19.81;40.84;102879.16;5035203;28;4223;-62
2022/12/18 06:05:38;;;;;;;;;;;;;;;19.79;40.86;102885.53;5041920;28;5407;-62
2022/12/18 06:08:05;;;;;;;;;;;;;;;19.81;40.89;102887.78;5035507;28;4190;-62
2022/12/18 06:10:34;;;;;;;;;;;;;;;19.80;40.88;102898.53;5037334;28;4176;-62
2022/12/18 06:13:00;;;;;;;;;;;;;;;19.82;40.80;102900.81;5042893;28;5261;-62
2022/12/18 06:15:27;;;;;;;;;;;;;;;19.80;40.78;102889.91;5033829;28;4184;-65
2022/12/18 06:17:53;;;;;;;;;;;;;;;19.82;41.02;102900.81;5037464;28;5427;-63
2022/12/18 06:20:19;;;;;;;;;;;;;;;19.81;40.96;102891.44;5038257;28;4182;-62
2022/12/18 06:22:46;;;;;;;;;;;;;;;19.81;41.13;102888.56;5026761;28;4324;-62
2022/12/18 06:25:12;;;;;;;;;;;;;;;19.82;41.01;102884.31;5040396;28;4336;-62
2022/12/18 06:27:38;;;;;;;;;;;;;;;19.83;40.81;102890.81;5040845;28;4231;-62
2022/12/18 06:30:05;;;;;;;;;;;;;;;19.83;40.92;102896.56;5043762;28;4147;-62
2022/12/18 06:32:31;;;;;;;;;;;;;;;19.84;40.80;102898.09;5048579;28;4195;-62
2022/12/18 06:34:58;;;;;;;;;;;;;;;19.83;40.93;102905.19;5043538;28;4116;-63
2022/12/18 06:37:25;;;;;;;;;;;;;;;19.85;40.76;102911.13;5043072;28;6265;-62
2022/12/18 06:39:52;;;;;;;;;;;;;;;19.84;40.94;102921.88;5049359;28;5204;-62
2022/12/18 06:42:19;;;;;;;;;;;;;;;19.85;40.92;102922.63;5045414;28;4110;-62
2022/12/18 06:44:48;;;;;;;;;;;;;;;19.84;40.95;102926.84;5026290;28;4180;-62
2022/12/18 06:47:14;;;;;;;;;;;;;;;19.83;40.84;102936.81;5038214;28;4085;-62
2022/12/18 06:49:41;;;;;;;;;;;;;;;19.80;41.46;102943.78;5045074;28;4268;-63
2022/12/18 06:52:07;;;;;;;;;;;;;;;19.81;41.18;102939.53;5040201;28;3989;-63
2022/12/18 06:54:33;;;;;;;;;;;;;;;19.79;40.85;102936.50;5045900;28;4248;-63
2022/12/18 06:57:00;;;;;;;;;;;;;;;19.80;40.57;102935.16;5047168;28;4131;-63
2022/12/18 06:59:26;;;;;;;;;;;;;;;19.81;40.47;102939.53;5048699;28;4052;-62
2022/12/18 07:01:53;;;;;;;;;;;;;;;19.80;40.62;102935.16;5046717;28;5785;-62
2022/12/18 07:04:20;;;;;;;;;;;;;;;19.82;40.67;102941.06;5048457;28;4112;-64
2022/12/18 07:06:46;;;;;;;;;;;;;;;19.79;40.66;102943.03;5038858;28;4106;-64
2022/12/18 07:09:12;;;;;;;;;;;;;;;19.80;40.62;102943.78;5053610;28;5091;-63
2022/12/18 07:11:39;;;;;;;;;;;;;;;19.80;40.52;102938.78;5048981;28;5647;-63
2022/12/18 07:14:05;;;;;;;;;;;;;;;19.79;40.54;102943.03;5044796;28;4172;-63
2022/12/18 07:16:31;;;;;;;;;;;;;;;19.79;40.71;102930.75;5038953;28;4136;-63
2022/12/18 07:18:58;;;;;;;;;;;;;;;19.80;40.57;102932.28;5042900;28;5072;-64
2022/12/18 07:21:24;;;;;;;;;;;;;;;19.80;40.48;102938.03;5053414;28;5349;-64
2022/12/18 07:23:51;;;;;;;;;;;;;;;19.79;40.65;102931.53;5052138;28;5259;-64
2022/12/18 07:26:18;;;;;;;;;;;;;;;19.80;40.79;102940.91;5058941;28;4107;-64
2022/12/18 07:28:44;;;;;;;;;;;;;;;19.80;40.61;102915.03;5049664;28;4979;-63
2022/12/18 07:31:11;;;;;;;;;;;;;;;19.80;40.71;102938.03;5050541;28;4473;-63
2022/12/18 07:33:37;;;;;;;;;;;;;;;19.80;40.70;102938.03;5041942;28;4107;-63
2022/12/18 07:36:05;;;;;;;;;;;;;;;19.80;40.61;102932.28;5054395;28;3984;-63
2022/12/18 07:38:32;;;;;;;;;;;;;;;19.80;40.60;102923.66;5044357;28;4378;-63
2022/12/18 07:41:10;;;;;;;;;;;;;;;19.79;40.67;102922.13;5042060;28;3966;-63
2022/12/18 07:43:36;;;;;;;;;;;;;;;19.79;40.46;102917.16;5045317;28;4075;-63
2022/12/18 07:46:04;;;;;;;;;;;;;;;19.78;40.50;102923.47;5036238;28;5579;-63
2022/12/18 07:48:30;;;;;;;;;;;;;;;19.78;40.51;102917.72;5037875;28;5265;-63
2022/12/18 07:51:00;;;;;;;;;;;;;;;19.79;40.50;102930.75;5051601;28;4533;-63
2022/12/18 07:53:26;;;;;;;;;;;;;;;19.78;40.56;102929.22;5038840;28;4211;-63
2022/12/18 07:55:56;;;;;;;;;;;;;;;19.79;40.40;102930.75;5035981;28;4154;-63
2022/12/18 07:58:44;;;;;;;;;;;;;;;19.79;40.41;102942.25;5030464;28;4000;-62
2022/12/18 08:01:14;;;;;;;;;;;;;;;19.79;40.49;102939.38;5038351;28;4467;-62
2022/12/18 08:03:40;;;;;;;;;;;;;;;19.79;40.34;102942.25;5035984;28;4035;-62
2022/12/18 08:06:08;;;;;;;;;;;;;;;19.87;40.64;102951.53;5032490;28;4050;-59
2022/12/18 08:08:35;;;;;;;;;;;;;;;19.92;40.86;102944.75;5032474;28;4186;-66
2022/12/18 08:11:07;;;;;;;;;;;;;;;19.87;40.93;102949.41;5032091;28;4214;-63
2022/12/18 08:13:33;;;;;;;;;;;;;;;19.84;41.08;102970.00;5026806;28;4392;-63
2022/12/18 08:16:00;;;;;;;;;;;;;;;19.82;40.97;102966.94;5025733;28;4061;-63
2022/12/18 08:18:27;;;;;;;;;;;;;;;19.81;40.68;102965.41;5034783;28;4192;-63
2022/12/18 08:20:53;;;;;;;;;;;;;;;19.81;40.91;102962.53;5036893;28;4215;-63
2022/12/18 08:23:20;;;;;;;;;;;;;;;19.80;40.89;102961.78;5037310;28;4281;-63
2022/12/18 08:25:46;;;;;;;;;;;;;;;19.79;40.78;102966.03;5040468;28;4497;-65
2022/12/18 08:28:12;;;;;;;;;;;;;;;19.71;41.27;102958.84;5027172;28;4115;-65
2022/12/18 08:30:42;;;;;;;;;;;;;;;19.80;41.08;102966.78;5038112;28;4119;-62
2022/12/18 08:33:08;;;;;;;;;;;;;;;19.81;40.70;102965.41;5031410;28;4882;-63
2022/12/18 08:35:36;;;;;;;;;;;;;;;19.82;40.90;102972.69;5037633;28;5271;-62
2022/12/18 08:38:10;;;;;;;;;;;;;;;19.87;40.51;102977.41;5030460;28;4281;-62
2022/12/18 08:40:37;;;;;;;;;;;;;;;19.89;40.35;102971.84;5029478;28;4362;-62
2022/12/18 08:45:57;;;;;;;;;;;;;;;19.83;40.06;102982.81;5020480;28;5291;-62
2022/12/18 08:48:26;;;;;;;;;;;;;;;19.83;39.86;102994.31;5026540;28;3998;-63
2022/12/18 08:50:59;;;;;;;;;;;;;;;19.92;39.61;102996.53;5028672;28;5374;-64
2022/12/18 08:53:25;;;;;;;;;;;;;;;19.97;39.77;102994.75;5032862;28;4224;-61
2022/12/18 08:55:58;;;;;;;;;;;;;;;19.96;39.61;102998.97;5039191;28;4132;-60
2022/12/18 08:58:24;;;;;;;;;;;;;;;19.94;39.75;102993.81;5037446;28;4077;-61
2022/12/18 09:00:53;;;;;;;;;;;;;;;19.94;39.80;102999.56;5033757;28;4144;-61
2022/12/18 09:03:22;;;;;;;;;;;;;;;19.93;40.00;102989.44;5033387;28;4053;-60
2022/12/18 09:05:48;;;;;;;;;;;;;;;19.94;39.98;102993.81;5039244;28;4146;-65
2022/12/18 09:08:15;;;;;;;;;;;;;;;19.93;39.99;102998.06;5031990;28;4372;-60
2022/12/18 09:10:41;;;;;;;;;;;;;;;19.93;40.04;103009.56;5033012;28;4262;-61
2022/12/18 09:13:09;;;;;;;;;;;;;;;19.94;40.61;103005.31;5034815;28;5221;-60
2022/12/18 09:15:40;;;;;;;;;;;;;;;19.96;40.59;102996.09;5036347;28;4107;-61
2022/12/18 09:18:07;;;;;;;;;;;;;;;19.89;40.80;102989.09;5034374;28;5497;-62
2022/12/18 09:20:33;;;;;;;;;;;;;;;20.02;40.79;102991.63;5040017;28;4019;-60
2022/12/18 09:22:59;;;;;;;;;;;;;;;19.99;41.02;102997.78;5037737;28;4172;-60
2022/12/18 09:25:27;;;;;;;;;;;;;;;19.95;41.30;102995.34;5030410;28;5434;-61
2022/12/18 09:27:53;;;;;;;;;;;;;;;19.97;40.79;103004.13;5035185;28;5223;-62
2022/12/18 09:30:20;;;;;;;;;;;;;;;19.96;40.79;102993.97;5038258;28;4226;-63
2022/12/18 09:32:49;;;;;;;;;;;;;;;19.97;41.34;103006.25;5038133;28;4139;-61
2022/12/18 09:35:15;;;;;;;;;;;;;;;19.96;40.85;103008.38;5033245;28;4070;-61
2022/12/18 09:37:48;;;;;;;;;;;;;;;19.99;41.39;103007.16;5034397;28;4181;-61
2022/12/18 09:40:15;;;;;;;;;;;;;;;20.01;41.11;102992.94;5037735;28;4091;-61
2022/12/18 09:42:43;;;;;;;;;;;;;;;19.92;41.45;102979.25;5039276;28;4178;-61
2022/12/18 09:45:11;;;;;;;;;;;;;;;19.93;41.10;102986.56;5035467;28;4208;-61
2022/12/18 09:47:38;;;;;;;;;;;;;;;19.99;41.17;102977.66;5041263;28;5229;-62
2022/12/18 09:50:05;;;;;;;;;;;;;;;20.01;41.33;102958.44;5035209;28;4487;-62
2022/12/18 09:52:41;;;;;;;;;;;;;;;20.04;41.60;102963.03;5037415;28;4213;-61
2022/12/18 09:55:10;;;;;;;;;;;;;;;20.05;41.63;102964.53;5048523;28;4306;-61
2022/12/18 09:57:38;;;;;;;;;;;;;;;20.07;41.67;102964.69;5027825;28;5225;-61
2022/12/18 10:00:14;;;;;;;;;;;;;;;20.08;41.54;102960.44;5037241;28;5421;-61
2022/12/18 10:02:40;;;;;;;;;;;;;;;20.08;41.95;102957.56;5035459;28;4223;-61
2022/12/18 10:05:10;;;;;;;;;;;;;;;20.07;41.82;102961.81;5048152;28;5198;-61
2022/12/18 10:07:45;;;;;;;;;;;;;;;20.06;41.80;102948.03;5044226;28;5382;-61
2022/12/18 10:10:26;;;;;;;;;;;;;;;20.06;41.72;102948.78;5040656;28;5402;-62
2022/12/18 10:12:59;;;;;;;;;;;;;;;20.06;41.61;102948.78;5042681;28;4229;-61
2022/12/18 10:15:32;;;;;;;;;;;;;;;20.07;41.89;102961.06;5039525;28;4295;-61
2022/12/18 10:18:04;;;;;;;;;;;;;;;20.06;41.68;102948.78;5046456;28;4183;-61
2022/12/18 10:20:44;;;;;;;;;;;;;;;20.07;41.88;102956.06;5053677;28;4187;-62
2022/12/18 10:23:13;;;;;;;;;;;;;;;20.07;41.82;102953.19;5052424;28;4498;-62
2022/12/18 10:25:56;;;;;;;;;;;;;;;20.07;41.72;102944.56;5054499;28;4196;-62
2022/12/18 10:28:22;;;;;;;;;;;;;;;20.08;41.64;102946.06;5053453;28;5200;-61
2022/12/18 10:30:49;;;;;;;;;;;;;;;20.09;41.95;102953.34;5054046;28;4250;-62
2022/12/18 10:33:16;;;;;;;;;;;;;;;20.11;41.80;102946.22;5058161;28;4173;-61
2022/12/18 10:35:42;;;;;;;;;;;;;;;20.10;41.76;102942.59;5060774;28;4231;-61
2022/12/18 10:38:12;;;;;;;;;;;;;;;20.11;41.83;102934.72;5053575;28;4089;-62
2022/12/18 10:40:56;;;;;;;;;;;;;;;20.12;41.72;102924.75;5057833;28;4111;-60
2022/12/18 10:43:30;;;;;;;;;;;;;;;20.12;41.67;102930.50;5052396;28;4113;-61
2022/12/18 10:45:59;;;;;;;;;;;;;;;20.13;41.91;102929.91;5056003;28;5178;-62
2022/12/18 10:48:26;;;;;;;;;;;;;;;20.14;41.93;102916.28;5061777;28;4189;-62
2022/12/18 10:50:52;;;;;;;;;;;;;;;20.13;41.83;102914.75;5053559;28;4395;-63
2022/12/18 10:53:37;;;;;;;;;;;;;;;20.15;41.92;102914.94;5056010;28;5339;-62
2022/12/18 10:56:04;;;;;;;;;;;;;;;20.14;41.81;102910.53;5047104;28;4315;-62
2022/12/18 10:58:34;;;;;;;;;;;;;;;20.13;41.88;102906.13;5039639;28;5436;-60
2022/12/18 11:01:10;;;;;;;;;;;;;;;20.13;41.80;102906.13;5039417;28;6247;-64
2022/12/18 11:03:38;;;;;;;;;;;;;;;20.21;41.87;102918.28;5034838;28;4269;-62
2022/12/18 11:06:05;;;;;;;;;;;;;;;20.22;41.97;102925.56;5031222;28;4146;-62
2022/12/18 11:08:32;;;;;;;;;;;;;;;20.22;41.96;102928.44;5037709;28;4038;-62
2022/12/18 11:10:58;;;;;;;;;;;;;;;20.25;42.29;102930.13;5042856;28;3983;-62
2022/12/18 11:13:25;;;;;;;;;;;;;;;20.25;41.82;102918.63;5035370;28;3916;-62
2022/12/18 11:15:51;;;;;;;;;;;;;;;20.18;42.32;102913.72;5034810;28;4782;-62
2022/12/18 11:18:25;;;;;;;;;;;;;;;17.84;44.23;102919.16;5028022;28;3961;-65
2022/12/18 11:20:52;;;;;;;;;;;;;;;19.41;43.04;102918.31;5040943;28;4096;-64
2022/12/18 11:23:24;;;;;;;;;;;;;;;19.81;41.80;102922.28;5033591;28;4187;-63
2022/12/18 11:25:50;;;;;;;;;;;;;;;19.62;42.11;102903.50;5036443;28;4059;-65
2022/12/18 11:28:27;;;;;;;;;;;;;;;19.32;40.38;102895.25;5028308;28;4022;-63
2022/12/18 11:31:11;;;;;;;;;;;;;;;18.97;38.45;102913.22;5028223;28;4238;-62
2022/12/18 11:33:37;;;;;;;;;;;;;;;19.19;39.42;102910.72;5031991;28;3935;-63
2022/12/18 11:36:04;;;;;;;;;;;;;;;19.56;39.27;102908.00;5041565;28;4012;-62
2022/12/18 11:38:37;;;;;;;;;;;;;;;19.60;39.47;102914.84;5034602;28;4182;-63
2022/12/18 11:41:12;;;;;;;;;;;;;;;19.79;39.18;102917.16;5035552;28;4254;-64
2022/12/18 11:43:41;;;;;;;;;;;;;;;19.97;39.46;102919.97;5037697;28;4016;-65
2022/12/18 11:46:09;;;;;;;;;;;;;;;19.99;39.36;102926.63;5033833;28;4157;-69
2022/12/18 11:48:44;;;;;;;;;;;;;;;19.95;39.72;102928.44;5040061;28;4117;-63
2022/12/18 11:51:11;;;;;;;;;;;;;;;19.99;40.11;102932.38;5038523;28;5181;-63
2022/12/18 11:53:39;;;;;;;;;;;;;;;19.99;39.88;102938.13;5035201;28;5266;-62
2022/12/18 11:56:29;;;;;;;;;;;;;;;19.99;40.43;102935.25;5039713;28;4008;-62
2022/12/18 11:59:14;;;;;;;;;;;;;;;20.01;40.68;102941.19;5030676;28;4270;-63
2022/12/18 12:01:44;;;;;;;;;;;;;;;20.02;40.70;102927.56;5033142;28;4119;-62
2022/12/18 12:04:14;;;;;;;;;;;;;;;20.04;41.14;102940.00;5039552;28;4014;-63
2022/12/18 12:07:07;;;;;;;;;;;;;;;19.99;40.75;102932.38;5035459;28;4144;-63
2022/12/18 12:09:49;;;;;;;;;;;;;;;19.96;40.72;102924.97;5030545;28;4094;-65
2022/12/18 12:12:45;;;;;;;;;;;;;;;19.97;40.65;102935.09;5031689;28;5319;-64
2022/12/18 12:15:20;;;;;;;;;;;;;;;19.93;40.50;102942.63;5026651;28;4150;-63
2022/12/18 12:17:46;;;;;;;;;;;;;;;19.89;40.66;102943.09;5041056;28;4281;-64
2022/12/18 12:20:27;;;;;;;;;;;;;;;19.85;40.87;102940.63;5035423;28;4113;-64
2022/12/18 12:22:57;;;;;;;;;;;;;;;20.02;41.36;102954.22;5036074;28;4011;-67
2022/12/18 12:25:35;;;;;;;;;;;;;;;20.09;41.21;102964.09;5027067;28;4376;-63
2022/12/18 12:28:10;;;;;;;;;;;;;;;19.86;41.47;102953.66;5038242;28;5228;-63
2022/12/18 12:30:41;;;;;;;;;;;;;;;19.89;40.67;102957.47;5039669;28;4000;-62
2022/12/18 12:33:11;;;;;;;;;;;;;;;19.92;40.90;102944.75;5040043;28;4149;-62
2022/12/18 12:35:42;;;;;;;;;;;;;;;19.89;40.77;102954.59;5049780;28;3968;-63
2022/12/18 12:38:13;;;;;;;;;;;;;;;19.82;40.94;102946.81;5045847;28;4799;-63
2022/12/18 12:40:42;;;;;;;;;;;;;;;19.76;40.94;102921.19;5036640;28;4245;-62
2022/12/18 12:43:44;;;;;;;;;;;;;;;19.80;40.79;102926.53;5043987;28;5244;-62
2022/12/18 12:46:17;;;;;;;;;;;;;;;19.79;40.58;102925.00;5040114;28;4213;-63
2022/12/18 12:48:45;;;;;;;;;;;;;;;19.74;40.42;102917.38;5049989;28;3925;-64
2022/12/18 12:51:14;;;;;;;;;;;;;;;19.69;40.61;102904.03;5047685;28;5178;-63
2022/12/18 12:53:41;;;;;;;;;;;;;;;19.73;40.36;102907.25;5046355;28;4176;-63
2022/12/18 12:56:08;;;;;;;;;;;;;;;19.80;39.72;102906.41;5041190;28;4124;-63
2022/12/18 12:58:37;;;;;;;;;;;;;;;19.85;39.05;102899.63;5041044;28;4204;-63
2022/12/18 13:01:22;;;;;;;;;;;;;;;19.87;39.32;102897.66;5041414;28;5476;-63
2022/12/18 13:04:16;;;;;;;;;;;;;;;19.90;39.63;102901.47;5041855;28;4177;-63
2022/12/18 13:06:48;;;;;;;;;;;;;;;19.89;39.76;102899.94;5044966;28;4164;-64
2022/12/18 13:09:14;;;;;;;;;;;;;;;19.87;40.02;102896.91;5047004;28;5734;-64
2022/12/18 13:14:30;;;;;;;;;;;;;;;19.88;40.07;102899.19;5041843;28;4079;-63